Time;durP1;ratioP1;P1;durP2;ratioP2;P2;SDS_P1;SDS_P2;PMS_P1;PMS_P2;Temp;Humidity;BMP_temperature;BMP_pressure;BME280_temperature;BME280_humidity;BME280_pressure;Samples;Min_cycle;Max_cycle;Signal;HPM_P1;HPM_P2
2023/05/20 00:00:29;;;;;;;44.25;40.58;;;12.40;99.90;;;;;;5263599;28;20040;-69
2023/05/20 00:03:00;;;;;;;42.15;38.83;;;12.60;99.90;;;;;;5265769;28;20476;-68
2023/05/20 00:05:31;;;;;;;46.83;43.17;;;12.80;99.90;;;;;;5263587;28;20024;-69
2023/05/20 00:08:06;;;;;;;44.80;41.10;;;12.40;99.90;;;;;;5265590;28;20467;-68
2023/05/20 00:10:37;;;;;;;44.28;41.10;;;12.50;99.90;;;;;;5267610;28;20024;-69
2023/05/20 00:13:08;;;;;;;47.13;43.38;;;12.40;99.90;;;;;;5267386;28;20081;-67
2023/05/20 00:15:38;;;;;;;42.75;39.25;;;12.40;99.90;;;;;;5267518;28;20032;-68
2023/05/20 00:18:09;;;;;;;46.63;42.72;;;12.40;99.90;;;;;;5267373;28;20126;-68
2023/05/20 00:20:40;;;;;;;42.72;39.08;;;12.30;99.90;;;;;;5267566;28;20036;-68
2023/05/20 00:23:11;;;;;;;44.08;40.65;;;12.30;99.90;;;;;;5267600;28;20031;-68
2023/05/20 00:25:42;;;;;;;44.13;40.63;;;12.50;99.90;;;;;;5267871;28;20032;-68
2023/05/20 00:28:12;;;;;;;44.15;40.35;;;12.40;99.90;;;;;;5267684;28;20031;-68
2023/05/20 00:30:43;;;;;;;44.60;41.00;;;12.30;99.90;;;;;;5267516;28;20048;-67
2023/05/20 00:33:14;;;;;;;45.03;41.33;;;12.30;99.90;;;;;;5267557;28;20024;-68
2023/05/20 00:35:45;;;;;;;42.25;39.15;;;12.20;99.90;;;;;;5265707;28;20495;-68
2023/05/20 00:38:15;;;;;;;44.33;40.45;;;12.40;99.90;;;;;;5267322;28;20483;-68
2023/05/20 00:40:46;;;;;;;44.58;40.63;;;12.20;99.90;;;;;;5267499;28;20024;-68
2023/05/20 00:43:19;;;;;;;45.90;41.92;;;12.20;99.90;;;;;;5267485;28;20059;-66
2023/05/20 00:45:51;;;;;;;42.97;39.33;;;12.00;99.90;;;;;;5267745;28;20024;-67
2023/05/20 00:48:25;;;;;;;42.22;38.67;;;12.10;99.90;;;;;;5270902;28;20039;-67
2023/05/20 00:51:00;;;;;;;40.72;37.50;;;12.10;99.90;;;;;;5271251;28;20039;-68
2023/05/20 00:53:32;;;;;;;37.97;34.90;;;12.20;99.90;;;;;;5270928;28;20035;-69
2023/05/20 00:56:04;;;;;;;40.20;36.50;;;12.20;99.90;;;;;;5271020;28;20035;-68
2023/05/20 00:58:38;;;;;;;39.78;36.38;;;12.00;99.90;;;;;;5270938;28;20491;-68
2023/05/20 01:01:09;;;;;;;41.53;37.97;;;12.10;99.90;;;;;;5270921;28;20111;-68
2023/05/20 01:03:40;;;;;;;37.38;34.15;;;12.10;99.90;;;;;;5271068;28;20438;-68
2023/05/20 01:06:11;;;;;;;38.25;34.85;;;12.10;99.90;;;;;;5270812;28;20032;-68
2023/05/20 01:08:42;;;;;;;39.83;35.85;;;12.20;99.90;;;;;;5270699;28;20042;-68
2023/05/20 01:11:28;;;;;;;45.65;41.10;;;12.30;99.90;;;;;;5269403;28;20028;-68
2023/05/20 01:14:05;;;;;;;42.05;38.22;;;12.10;99.90;;;;;;5270557;28;20078;-66
2023/05/20 01:16:38;;;;;;;38.42;34.88;;;12.20;99.90;;;;;;5270551;28;20383;-67
2023/05/20 01:19:32;;;;;;;39.63;36.05;;;12.30;99.90;;;;;;5270412;28;20035;-68
2023/05/20 01:22:07;;;;;;;42.65;38.67;;;12.30;99.90;;;;;;5270569;28;20630;-68
2023/05/20 01:24:40;;;;;;;44.30;40.25;;;12.30;99.90;;;;;;5270379;28;20032;-68
2023/05/20 01:27:12;;;;;;;43.75;39.85;;;12.30;99.90;;;;;;5270321;28;20020;-68
2023/05/20 01:29:43;;;;;;;41.80;38.30;;;12.30;99.90;;;;;;5270292;28;20028;-68
2023/05/20 01:32:26;;;;;;;41.90;38.10;;;12.20;99.90;;;;;;5270391;28;20332;-68
2023/05/20 01:34:59;;;;;;;38.08;34.83;;;12.10;99.90;;;;;;5270637;28;20024;-68
2023/05/20 01:37:30;;;;;;;43.47;39.28;;;12.10;99.90;;;;;;5270205;28;20111;-68
2023/05/20 01:40:04;;;;;;;42.63;38.50;;;12.10;99.90;;;;;;5270182;28;20454;-68
2023/05/20 01:42:35;;;;;;;43.95;39.35;;;11.90;99.90;;;;;;5270151;28;20378;-68
2023/05/20 01:45:06;;;;;;;38.10;34.70;;;12.20;99.90;;;;;;5269984;28;20067;-68
2023/05/20 01:47:37;;;;;;;41.58;37.78;;;12.00;99.90;;;;;;5270133;28;20077;-68
2023/05/20 01:50:08;;;;;;;43.75;39.85;;;11.90;99.90;;;;;;5269680;28;20428;-68
2023/05/20 01:52:39;;;;;;;43.17;38.97;;;12.00;99.90;;;;;;5269961;28;20819;-68
2023/05/20 01:55:10;;;;;;;41.80;37.53;;;12.00;99.90;;;;;;5270088;28;20036;-68
2023/05/20 01:57:41;;;;;;;48.05;43.45;;;12.00;99.90;;;;;;5269831;28;20020;-67
2023/05/20 02:00:12;;;;;;;43.08;38.95;;;12.10;99.90;;;;;;5269848;28;20036;-68
2023/05/20 02:02:43;;;;;;;39.30;36.17;;;12.00;99.90;;;;;;5269900;28;20023;-68
2023/05/20 02:05:13;;;;;;;40.03;36.63;;;12.00;99.90;;;;;;5269714;28;20028;-68
2023/05/20 02:07:44;;;;;;;41.05;37.58;;;11.90;99.90;;;;;;5269553;28;20060;-68
2023/05/20 02:10:15;;;;;;;42.42;38.53;;;12.00;99.90;;;;;;5269470;28;20035;-68
2023/05/20 02:12:48;;;;;;;37.53;34.22;;;11.90;99.90;;;;;;5269452;28;20023;-68
2023/05/20 02:15:18;;;;;;;37.90;34.38;;;12.00;99.90;;;;;;5269344;28;20032;-68
2023/05/20 02:17:49;;;;;;;36.30;33.35;;;11.80;99.90;;;;;;5269335;28;20028;-67
2023/05/20 02:20:20;;;;;;;38.42;35.03;;;11.80;99.90;;;;;;5269235;28;20051;-68
2023/05/20 02:22:51;;;;;;;42.17;38.75;;;11.80;99.90;;;;;;5269188;28;20082;-67
2023/05/20 02:25:21;;;;;;;43.15;39.20;;;11.90;99.90;;;;;;5269142;28;20028;-68
2023/05/20 02:27:52;;;;;;;46.45;42.67;;;12.10;99.90;;;;;;5269209;28;20032;-66
2023/05/20 02:30:23;;;;;;;40.45;37.03;;;11.70;99.90;;;;;;5269228;28;20052;-67
2023/05/20 02:32:54;;;;;;;44.03;40.45;;;11.80;99.90;;;;;;5268898;28;20081;-68
2023/05/20 02:35:25;;;;;;;45.47;41.55;;;12.10;99.90;;;;;;5268937;28;20031;-68
2023/05/20 02:37:55;;;;;;;45.55;41.88;;;11.90;99.90;;;;;;5268893;28;20032;-68
2023/05/20 02:40:26;;;;;;;43.65;39.85;;;12.00;99.90;;;;;;5268983;28;20091;-68
2023/05/20 02:42:58;;;;;;;45.50;42.00;;;12.00;99.90;;;;;;5268903;28;20009;-68
2023/05/20 02:45:29;;;;;;;45.35;41.60;;;11.90;99.90;;;;;;5268856;28;20114;-68
2023/05/20 02:48:00;;;;;;;43.75;40.30;;;11.90;99.90;;;;;;5268746;28;20069;-68
2023/05/20 02:50:31;;;;;;;44.75;41.38;;;11.90;99.90;;;;;;5268654;28;20453;-68
2023/05/20 02:53:02;;;;;;;39.65;36.65;;;11.70;99.90;;;;;;5268733;28;20012;-68
2023/05/20 02:55:36;;;;;;;44.25;40.53;;;11.90;99.90;;;;;;5269033;28;20080;-68
2023/05/20 02:58:07;;;;;;;43.97;40.45;;;12.00;99.90;;;;;;5268561;28;20072;-67
2023/05/20 03:00:39;;;;;;;42.90;39.50;;;12.00;99.90;;;;;;5268633;28;20091;-68
2023/05/20 03:03:10;;;;;;;43.63;40.30;;;12.00;99.90;;;;;;5268534;28;20364;-69
2023/05/20 03:05:44;;;;;;;48.08;44.05;;;12.00;99.90;;;;;;5268639;28;20106;-68
2023/05/20 03:08:15;;;;;;;50.75;46.42;;;11.80;99.90;;;;;;5267976;28;20032;-68
2023/05/20 03:10:46;;;;;;;45.60;41.60;;;11.70;99.90;;;;;;5268597;28;20020;-68
2023/05/20 03:13:17;;;;;;;46.13;42.25;;;11.80;99.90;;;;;;5268354;28;20031;-68
2023/05/20 03:15:48;;;;;;;51.92;47.35;;;11.90;99.90;;;;;;5268346;28;20020;-67
2023/05/20 03:18:18;;;;;;;53.25;48.72;;;12.10;99.90;;;;;;5268267;28;20047;-68
2023/05/20 03:20:49;;;;;;;50.95;47.08;;;12.10;99.90;;;;;;5268395;28;20028;-67
2023/05/20 03:23:20;;;;;;;48.67;44.70;;;12.10;99.90;;;;;;5268222;28;20012;-68
2023/05/20 03:25:51;;;;;;;52.65;48.75;;;12.10;99.90;;;;;;5268203;28;20028;-67
2023/05/20 03:28:21;;;;;;;46.22;42.72;;;12.20;99.90;;;;;;5268141;28;20492;-68
2023/05/20 03:30:52;;;;;;;47.53;43.78;;;12.10;99.90;;;;;;5268142;28;20036;-68
2023/05/20 03:33:25;;;;;;;47.20;43.53;;;12.10;99.90;;;;;;5268121;28;20091;-68
2023/05/20 03:35:55;;;;;;;49.80;45.95;;;12.00;99.90;;;;;;5268046;28;20020;-68
2023/05/20 03:38:26;;;;;;;47.78;44.17;;;12.30;99.90;;;;;;5267831;28;20020;-68
2023/05/20 03:40:57;;;;;;;46.10;42.65;;;12.30;99.90;;;;;;5268033;28;20036;-68
2023/05/20 03:43:28;;;;;;;45.28;41.45;;;12.20;99.90;;;;;;5268119;28;20048;-67
2023/05/20 03:45:59;;;;;;;42.50;38.92;;;12.30;99.90;;;;;;5268071;28;20467;-68
2023/05/20 03:48:30;;;;;;;42.33;39.00;;;12.30;99.90;;;;;;5267717;28;20055;-68
2023/05/20 03:51:01;;;;;;;37.78;34.67;;;12.30;99.90;;;;;;5267808;28;20036;-68
2023/05/20 03:53:32;;;;;;;39.83;36.50;;;12.40;99.90;;;;;;5267803;28;20031;-68
2023/05/20 03:56:03;;;;;;;39.10;35.90;;;12.60;99.90;;;;;;5267978;28;20028;-69
2023/05/20 03:58:34;;;;;;;37.53;34.42;;;12.60;99.90;;;;;;5267735;28;20078;-69
2023/05/20 04:01:04;;;;;;;41.17;37.35;;;12.60;99.90;;;;;;5267680;28;20036;-69
2023/05/20 04:03:35;;;;;;;37.35;34.38;;;12.70;99.90;;;;;;5267666;28;20051;-68
2023/05/20 04:06:06;;;;;;;40.38;36.90;;;12.70;99.90;;;;;;5267994;28;20150;-68
2023/05/20 04:08:37;;;;;;;37.05;34.08;;;12.80;99.90;;;;;;5267668;28;20036;-68
2023/05/20 04:11:08;;;;;;;38.97;35.70;;;13.00;99.90;;;;;;5267709;28;20020;-68
2023/05/20 04:13:38;;;;;;;38.13;35.03;;;12.90;99.90;;;;;;5267603;28;20025;-68
2023/05/20 04:16:09;;;;;;;37.35;34.15;;;13.10;99.90;;;;;;5267751;28;20383;-68
2023/05/20 04:18:40;;;;;;;38.28;34.88;;;13.30;99.90;;;;;;5267625;28;20036;-68
2023/05/20 04:21:11;;;;;;;37.72;34.80;;;13.40;99.90;;;;;;5269966;28;20028;-68
2023/05/20 04:23:41;;;;;;;39.38;36.22;;;13.20;99.90;;;;;;5272006;28;20103;-69
2023/05/20 04:26:13;;;;;;;41.17;37.63;;;13.30;99.90;;;;;;5271698;28;20020;-68
2023/05/20 04:28:47;;;;;;;40.10;36.72;;;13.40;99.90;;;;;;5271768;28;20035;-68
2023/05/20 04:31:19;;;;;;;34.20;31.38;;;13.50;99.90;;;;;;5271696;28;20479;-67
2023/05/20 04:33:50;;;;;;;33.63;30.63;;;13.50;99.90;;;;;;5271401;28;20039;-68
2023/05/20 04:36:21;;;;;;;33.10;30.30;;;13.60;99.90;;;;;;5271570;28;20020;-69
2023/05/20 04:38:52;;;;;;;31.38;28.63;;;13.70;99.90;;;;;;5271347;28;20395;-68
2023/05/20 04:41:23;;;;;;;32.17;29.42;;;13.90;99.90;;;;;;5271512;28;20082;-69
2023/05/20 04:43:58;;;;;;;32.72;29.88;;;14.00;99.90;;;;;;5271269;28;20036;-68
2023/05/20 04:46:30;;;;;;;29.67;26.98;;;14.10;99.90;;;;;;5271458;28;20020;-69
2023/05/20 04:49:01;;;;;;;28.70;26.13;;;14.30;99.90;;;;;;5270928;28;20060;-68
2023/05/20 04:51:34;;;;;;;27.98;25.55;;;14.30;99.90;;;;;;5271260;28;20020;-68
2023/05/20 04:54:05;;;;;;;28.63;26.33;;;14.40;99.90;;;;;;5271027;28;20123;-69
2023/05/20 04:56:35;;;;;;;29.40;26.50;;;14.50;99.90;;;;;;5271096;28;20095;-68
2023/05/20 04:59:06;;;;;;;29.35;26.75;;;14.60;99.90;;;;;;5270939;28;20048;-69
2023/05/20 05:01:37;;;;;;;28.67;26.27;;;14.50;99.90;;;;;;5271052;28;20107;-69
2023/05/20 05:04:08;;;;;;;29.70;26.90;;;14.50;99.90;;;;;;5270877;28;20115;-68
2023/05/20 05:06:38;;;;;;;28.85;26.00;;;14.80;99.90;;;;;;5270878;28;20363;-68
2023/05/20 05:09:09;;;;;;;25.42;23.00;;;14.90;99.90;;;;;;5270844;28;20028;-68
2023/05/20 05:11:40;;;;;;;24.02;21.80;;;15.00;99.90;;;;;;5270650;28;20048;-69
2023/05/20 05:14:11;;;;;;;28.63;25.45;;;15.10;99.90;;;;;;5270741;28;20028;-68
2023/05/20 05:16:42;;;;;;;25.83;23.23;;;15.00;99.90;;;;;;5270667;28;20095;-68
2023/05/20 05:19:12;;;;;;;26.55;24.10;;;15.00;99.90;;;;;;5270325;28;20048;-69
2023/05/20 05:21:43;;;;;;;26.42;23.83;;;15.00;99.90;;;;;;5270491;28;20028;-67
2023/05/20 05:24:14;;;;;;;25.65;23.08;;;15.00;99.90;;;;;;5270520;28;20088;-68
2023/05/20 05:26:45;;;;;;;26.42;23.83;;;14.90;99.90;;;;;;5270391;28;20030;-68
2023/05/20 05:29:15;;;;;;;26.35;23.85;;;14.90;99.90;;;;;;5270381;28;20028;-68
2023/05/20 05:31:46;;;;;;;26.95;24.33;;;15.00;99.90;;;;;;5269856;28;20031;-68
2023/05/20 05:34:17;;;;;;;26.38;24.13;;;15.00;99.90;;;;;;5270259;28;20042;-68
2023/05/20 05:36:48;;;;;;;26.60;24.38;;;15.00;99.90;;;;;;5270148;28;20024;-68
2023/05/20 05:39:18;;;;;;;24.40;22.10;;;15.00;99.90;;;;;;5270131;28;20586;-69
2023/05/20 05:41:49;;;;;;;24.50;22.42;;;15.10;99.90;;;;;;5270148;28;20063;-67
2023/05/20 05:44:20;;;;;;;27.20;24.65;;;15.20;99.90;;;;;;5270222;28;20085;-68
2023/05/20 05:46:51;;;;;;;23.73;21.25;;;15.20;99.90;;;;;;5270315;28;20035;-68
2023/05/20 05:49:22;;;;;;;26.45;23.95;;;15.20;99.90;;;;;;5270220;28;20052;-68
2023/05/20 05:51:53;;;;;;;27.30;24.90;;;15.10;99.90;;;;;;5270120;28;20103;-68
2023/05/20 05:54:24;;;;;;;28.80;25.90;;;15.20;99.90;;;;;;5269988;28;20056;-67
2023/05/20 05:56:55;;;;;;;29.90;27.08;;;15.30;99.90;;;;;;5269838;28;20081;-68
2023/05/20 05:59:26;;;;;;;29.08;26.25;;;15.20;99.90;;;;;;5269686;28;20079;-67
2023/05/20 06:01:57;;;;;;;28.55;25.92;;;15.30;99.90;;;;;;5269737;28;20047;-69
2023/05/20 06:04:27;;;;;;;31.48;28.73;;;15.20;99.90;;;;;;5269621;28;20028;-68
2023/05/20 06:06:58;;;;;;;30.17;27.58;;;15.30;99.90;;;;;;5269447;28;20363;-67
2023/05/20 06:09:29;;;;;;;28.63;26.23;;;15.30;99.90;;;;;;5269729;28;20107;-67
2023/05/20 06:12:01;;;;;;;30.45;27.77;;;15.40;99.90;;;;;;5269484;28;20028;-69
2023/05/20 06:14:32;;;;;;;28.02;25.55;;;15.40;99.90;;;;;;5269403;28;20103;-68
2023/05/20 06:17:04;;;;;;;30.70;28.05;;;15.40;99.90;;;;;;5269578;28;20484;-66
2023/05/20 06:19:35;;;;;;;31.27;28.60;;;15.40;99.90;;;;;;5269139;28;20048;-67
2023/05/20 06:22:06;;;;;;;29.73;27.23;;;15.40;99.90;;;;;;5269551;28;20024;-68
2023/05/20 06:24:36;;;;;;;31.27;28.73;;;15.40;99.90;;;;;;5269329;28;20103;-68
2023/05/20 06:27:07;;;;;;;30.33;27.42;;;15.40;99.90;;;;;;5268294;28;20028;-68
2023/05/20 06:29:38;;;;;;;27.83;25.73;;;15.40;99.90;;;;;;5269686;28;20052;-67
2023/05/20 06:32:09;;;;;;;26.75;24.60;;;15.40;99.90;;;;;;5269220;28;20077;-69
2023/05/20 06:34:40;;;;;;;26.95;24.95;;;15.50;99.90;;;;;;5269155;28;20024;-69
2023/05/20 06:37:10;;;;;;;26.38;24.30;;;15.30;99.90;;;;;;5268978;28;20026;-68
2023/05/20 06:39:41;;;;;;;28.42;25.67;;;15.40;99.90;;;;;;5268892;28;20036;-69
2023/05/20 06:42:12;;;;;;;27.73;25.33;;;15.30;99.90;;;;;;5269161;28;20035;-68
2023/05/20 06:44:43;;;;;;;26.13;23.88;;;15.40;99.90;;;;;;5268255;28;20012;-69
2023/05/20 06:47:16;;;;;;;28.10;25.67;;;15.40;99.90;;;;;;5268929;28;20024;-68
2023/05/20 06:49:46;;;;;;;28.50;26.17;;;15.50;99.90;;;;;;5268556;28;20051;-68
2023/05/20 06:52:17;;;;;;;25.65;23.27;;;15.50;99.90;;;;;;5268877;28;20031;-68
2023/05/20 06:54:48;;;;;;;27.73;25.63;;;15.60;99.90;;;;;;5268746;28;20042;-68
2023/05/20 06:57:19;;;;;;;27.48;25.17;;;15.60;99.90;;;;;;5268679;28;20020;-68
2023/05/20 06:59:50;;;;;;;26.77;24.58;;;15.70;99.90;;;;;;5268607;28;20129;-69
2023/05/20 07:02:21;;;;;;;26.52;24.45;;;15.80;99.90;;;;;;5268623;28;20511;-69
2023/05/20 07:04:52;;;;;;;28.10;25.67;;;15.90;99.90;;;;;;5268452;28;20028;-67
2023/05/20 07:07:23;;;;;;;27.77;25.42;;;15.90;99.90;;;;;;5268363;28;20173;-67
2023/05/20 07:09:54;;;;;;;27.08;24.90;;;16.00;99.90;;;;;;5268476;28;20028;-68
2023/05/20 07:12:25;;;;;;;26.90;24.90;;;16.10;99.90;;;;;;5268404;28;20039;-69
2023/05/20 07:14:55;;;;;;;26.98;24.88;;;16.10;99.90;;;;;;5267118;28;20032;-67
2023/05/20 07:17:28;;;;;;;27.13;25.13;;;16.20;99.90;;;;;;5268352;28;20028;-68
2023/05/20 07:19:58;;;;;;;28.73;26.67;;;16.40;99.90;;;;;;5267987;28;20048;-68
2023/05/20 07:22:29;;;;;;;28.80;26.50;;;16.40;99.90;;;;;;5268161;28;20028;-67
2023/05/20 07:25:00;;;;;;;29.02;26.55;;;16.50;99.90;;;;;;5268165;28;20157;-69
2023/05/20 07:27:31;;;;;;;29.17;26.88;;;16.50;99.90;;;;;;5268107;28;20429;-67
2023/05/20 07:30:02;;;;;;;30.45;28.17;;;16.50;99.90;;;;;;5261477;28;20067;-69
2023/05/20 07:32:33;;;;;;;31.02;28.52;;;16.60;99.90;;;;;;5261917;28;20056;-66
2023/05/20 07:35:04;;;;;;;34.08;31.38;;;16.70;99.90;;;;;;5268052;28;20063;-69
2023/05/20 07:37:35;;;;;;;34.25;31.35;;;16.60;99.90;;;;;;5265947;28;20058;-69
2023/05/20 07:40:06;;;;;;;32.95;30.50;;;16.60;99.90;;;;;;5257195;28;20043;-70
2023/05/20 07:42:37;;;;;;;36.40;33.42;;;16.60;99.90;;;;;;5247335;28;20052;-69
2023/05/20 07:45:08;;;;;;;32.70;30.08;;;16.60;99.90;;;;;;5247122;28;20066;-69
2023/05/20 07:47:39;;;;;;;33.20;30.73;;;16.60;99.90;;;;;;5246525;28;20526;-69
2023/05/20 07:50:10;;;;;;;36.92;33.92;;;16.60;99.90;;;;;;5245869;28;20422;-69
2023/05/20 07:52:41;;;;;;;34.22;31.17;;;16.60;99.90;;;;;;5246360;28;20013;-69
2023/05/20 07:55:12;;;;;;;37.28;34.65;;;16.60;99.90;;;;;;5249063;28;20411;-69
2023/05/20 07:57:43;;;;;;;35.60;32.97;;;16.80;99.90;;;;;;5250564;28;20024;-69
2023/05/20 08:00:14;;;;;;;36.30;33.35;;;16.80;99.90;;;;;;5251148;28;20044;-68
2023/05/20 08:02:46;;;;;;;35.00;32.50;;;17.00;99.90;;;;;;5251232;28;20021;-69
2023/05/20 08:05:17;;;;;;;37.78;35.20;;;17.00;99.90;;;;;;5251059;28;20036;-69
2023/05/20 08:07:47;;;;;;;39.42;36.67;;;17.00;99.90;;;;;;5250875;28;20020;-68
2023/05/20 08:10:18;;;;;;;37.28;34.67;;;17.00;99.90;;;;;;5251016;28;20399;-69
2023/05/20 08:12:49;;;;;;;37.60;35.00;;;17.10;99.90;;;;;;5250941;28;20023;-69
2023/05/20 08:15:20;;;;;;;37.33;34.72;;;17.10;99.90;;;;;;5250886;28;20036;-69
2023/05/20 08:17:51;;;;;;;38.15;35.38;;;17.10;99.90;;;;;;5250856;28;20031;-69
2023/05/20 08:20:21;;;;;;;39.35;36.22;;;17.00;99.90;;;;;;5250644;28;20058;-69
2023/05/20 08:22:52;;;;;;;36.60;33.97;;;17.10;99.90;;;;;;5250626;28;20024;-68
2023/05/20 08:25:23;;;;;;;40.00;37.30;;;17.20;99.90;;;;;;5250711;28;20669;-69
2023/05/20 08:27:54;;;;;;;39.03;36.35;;;17.20;99.90;;;;;;5250644;28;20103;-69
2023/05/20 08:30:25;;;;;;;41.63;38.85;;;17.30;99.90;;;;;;5250486;28;20035;-69
2023/05/20 08:32:56;;;;;;;37.83;35.28;;;17.30;99.90;;;;;;5250359;28;20035;-69
2023/05/20 08:35:27;;;;;;;33.72;31.63;;;17.50;99.90;;;;;;5250331;28;20028;-69
2023/05/20 08:37:58;;;;;;;30.35;28.13;;;17.60;99.90;;;;;;5266091;28;20387;-67
2023/05/20 08:40:28;;;;;;;27.80;25.75;;;17.70;99.90;;;;;;5254419;28;20032;-67
2023/05/20 08:43:00;;;;;;;24.23;22.25;;;17.90;99.90;;;;;;5261680;28;20120;-69
2023/05/20 08:45:33;;;;;;;21.83;20.08;;;18.00;99.90;;;;;;5271358;28;20028;-67
2023/05/20 08:48:04;;;;;;;23.30;21.42;;;18.10;99.90;;;;;;5271477;28;20016;-69
2023/05/20 08:50:35;;;;;;;24.48;22.38;;;18.10;99.90;;;;;;5271129;28;20087;-68
2023/05/20 08:53:07;;;;;;;25.52;23.50;;;18.20;99.90;;;;;;5271164;28;20048;-67
2023/05/20 08:55:56;;;;;;;26.63;24.52;;;18.30;99.90;;;;;;5266402;28;20486;-68
2023/05/20 08:58:28;;;;;;;26.55;24.48;;;18.50;99.90;;;;;;5250145;28;20029;-68
2023/05/20 09:01:00;;;;;;;26.58;24.58;;;18.60;99.90;;;;;;5250138;28;20032;-67
2023/05/20 09:03:32;;;;;;;29.48;27.48;;;18.70;99.90;;;;;;5250309;28;20024;-68
2023/05/20 09:06:05;;;;;;;28.92;26.92;;;18.70;99.90;;;;;;5249476;28;20052;-68
2023/05/20 09:08:36;;;;;;;36.35;33.22;;;18.90;99.90;;;;;;5249908;28;20483;-69
2023/05/20 09:11:09;;;;;;;33.70;31.15;;;19.00;99.90;;;;;;5249919;28;20073;-68
2023/05/20 09:13:40;;;;;;;32.30;30.20;;;19.00;99.90;;;;;;5249757;28;20111;-68
2023/05/20 09:16:10;;;;;;;31.83;29.38;;;19.00;99.90;;;;;;5249780;28;20111;-68
2023/05/20 09:18:42;;;;;;;33.92;31.17;;;19.40;99.90;;;;;;5249578;28;20059;-68
2023/05/20 09:21:12;;;;;;;31.55;29.38;;;19.50;99.90;;;;;;5249662;28;20036;-68
2023/05/20 09:23:48;;;;;;;31.70;29.30;;;19.60;99.90;;;;;;5249716;28;20024;-69
2023/05/20 09:26:19;;;;;;;30.60;28.13;;;19.60;99.90;;;;;;5249599;28;20029;-68
2023/05/20 09:28:50;;;;;;;27.20;24.77;;;19.70;99.90;;;;;;5249469;28;20029;-67
2023/05/20 09:31:24;;;;;;;28.75;26.50;;;19.40;99.90;;;;;;5249623;28;20349;-68
2023/05/20 09:33:56;;;;;;;27.90;25.50;;;19.60;99.90;;;;;;5249123;28;20035;-68
2023/05/20 09:36:30;;;;;;;27.02;24.88;;;19.60;99.90;;;;;;5248318;28;20452;-68
2023/05/20 09:39:04;;;;;;;30.45;27.95;;;19.70;99.90;;;;;;5248581;28;20036;-67
2023/05/20 09:41:43;;;;;;;27.30;25.42;;;19.90;99.90;;;;;;5249153;28;20442;-68
2023/05/20 09:44:15;;;;;;;;;;;19.90;99.90;;;;;;5249718;28;20027;-68
2023/05/20 09:46:48;;;;;;;32.50;30.02;;;19.90;99.90;;;;;;5249014;28;19905;-67
2023/05/20 09:49:20;;;;;;;30.60;28.50;;;20.00;99.90;;;;;;5248727;28;20496;-67
2023/05/20 09:51:52;;;;;;;35.92;33.33;;;20.60;99.90;;;;;;5255536;28;20055;-68
2023/05/20 09:54:24;;;;;;;35.65;32.60;;;20.30;99.90;;;;;;5269711;28;20032;-67
2023/05/20 09:56:58;;;;;;;33.95;31.60;;;20.40;99.90;;;;;;5269773;28;20020;-69
2023/05/20 09:59:30;;;;;;;34.38;31.85;;;20.10;99.90;;;;;;5269577;28;20554;-69
2023/05/20 10:02:01;;;;;;;34.40;31.98;;;20.10;99.90;;;;;;5269723;28;20375;-68
2023/05/20 10:04:35;;;;;;;35.75;33.08;;;20.30;99.90;;;;;;5269622;28;20107;-68
2023/05/20 10:07:25;;;;;;;36.78;34.10;;;20.10;99.90;;;;;;5269458;28;20404;-68
2023/05/20 10:10:19;;;;;;;35.28;32.90;;;20.30;99.90;;;;;;5268281;28;20114;-68
2023/05/20 10:13:28;;;;;;;32.85;30.35;;;19.80;99.90;;;;;;5250217;28;20032;-68
2023/05/20 10:16:05;;;;;;;34.80;32.50;;;19.70;99.90;;;;;;5238971;28;20442;-67
2023/05/20 10:18:55;;;;;;;35.45;32.95;;;20.00;99.90;;;;;;5247326;28;20055;-68
2023/05/20 10:21:26;;;;;;;;;;;19.80;99.90;;;;;;5248988;28;20025;-68
2023/05/20 10:24:07;;;;;;;32.08;29.25;;;19.90;99.90;;;;;;5248510;28;19907;-68
2023/05/20 10:26:40;;;;;;;32.30;29.58;;;19.80;99.90;;;;;;5248475;28;20029;-66
2023/05/20 10:29:18;;;;;;;32.00;29.80;;;19.60;99.90;;;;;;5248387;28;20032;-68
2023/05/20 10:31:51;;;;;;;30.40;27.88;;;19.40;99.90;;;;;;5248449;28;20029;-66
2023/05/20 10:34:22;;;;;;;26.88;24.83;;;19.30;99.90;;;;;;5248147;28;20016;-68
2023/05/20 10:36:53;;;;;;;27.83;25.73;;;19.20;99.90;;;;;;5248087;28;20021;-68
2023/05/20 10:39:34;;;;;;;28.38;26.13;;;19.10;99.90;;;;;;5247972;28;20040;-68
2023/05/20 10:42:09;;;;;;;27.73;25.27;;;19.00;99.90;;;;;;5248007;28;20032;-68
2023/05/20 10:44:48;;;;;;;29.58;27.27;;;19.10;99.90;;;;;;5247943;28;20035;-68
2023/05/20 10:47:19;;;;;;;29.90;27.73;;;19.00;99.90;;;;;;5246686;28;20044;-66
2023/05/20 10:49:50;;;;;;;28.10;25.65;;;19.50;99.90;;;;;;5246317;28;20052;-68
2023/05/20 10:52:22;;;;;;;27.77;25.42;;;19.30;99.90;;;;;;5247807;28;20491;-68
2023/05/20 10:54:57;;;;;;;26.83;24.58;;;19.40;99.90;;;;;;5247812;28;20027;-68
2023/05/20 10:57:28;;;;;;;30.83;28.10;;;19.20;99.90;;;;;;5247618;28;20126;-67
2023/05/20 11:00:00;;;;;;;28.85;26.50;;;19.20;99.90;;;;;;5247552;28;20041;-68
2023/05/20 11:02:32;;;;;;;27.90;25.23;;;18.90;99.90;;;;;;5247576;28;20103;-69
2023/05/20 11:05:05;;;;;;;29.60;27.02;;;19.00;99.90;;;;;;5247504;28;20016;-68
2023/05/20 11:07:36;;;;;;;27.95;25.50;;;19.30;99.90;;;;;;5247421;28;20043;-68
2023/05/20 11:10:08;;;;;;;28.25;25.90;;;19.00;99.90;;;;;;5247375;28;20017;-66
2023/05/20 11:12:39;;;;;;;26.42;24.23;;;18.60;99.90;;;;;;5247464;28;20029;-68
2023/05/20 11:15:11;;;;;;;27.25;24.40;;;18.50;99.90;;;;;;5247460;28;20021;-68
2023/05/20 11:17:53;;;;;;;28.45;25.65;;;18.70;99.90;;;;;;5247453;28;20074;-68
2023/05/20 11:20:24;;;;;;;28.58;25.98;;;18.80;99.90;;;;;;5247382;28;20056;-68
2023/05/20 11:22:55;;;;;;;29.35;26.52;;;18.70;99.90;;;;;;5247497;28;20020;-68
2023/05/20 11:25:27;;;;;;;28.13;25.38;;;18.70;99.90;;;;;;5247396;28;20107;-68
2023/05/20 11:27:58;;;;;;;27.23;24.73;;;18.60;99.90;;;;;;5247333;28;20555;-68
2023/05/20 11:30:29;;;;;;;27.80;25.35;;;18.70;99.90;;;;;;5247061;28;20028;-68
2023/05/20 11:33:02;;;;;;;27.48;24.80;;;18.80;99.90;;;;;;5247469;28;20056;-68
2023/05/20 11:35:33;;;;;;;27.10;24.60;;;18.80;99.90;;;;;;5247483;28;20021;-68
2023/05/20 11:38:07;;;;;;;25.92;23.58;;;18.60;99.90;;;;;;5247204;28;20029;-68
2023/05/20 11:40:46;;;;;;;26.30;23.98;;;18.80;99.90;;;;;;5247248;28;20107;-68
2023/05/20 11:43:17;;;;;;;27.63;25.00;;;19.10;99.90;;;;;;5247245;28;20020;-68
2023/05/20 11:45:54;;;;;;;25.30;22.98;;;19.10;99.90;;;;;;5247562;28;20033;-69
2023/05/20 11:48:24;;;;;;;26.85;24.25;;;19.00;99.90;;;;;;5246932;28;20123;-68
2023/05/20 11:50:57;;;;;;;25.60;23.10;;;19.20;99.90;;;;;;5247022;28;20496;-69
2023/05/20 11:53:28;;;;;;;25.08;22.58;;;19.10;99.90;;;;;;5246921;28;20039;-69
2023/05/20 11:56:01;;;;;;;25.95;23.17;;;19.30;99.90;;;;;;5247175;28;20115;-69
2023/05/20 11:58:31;;;;;;;26.27;23.60;;;19.70;99.90;;;;;;5246965;28;20028;-68
2023/05/20 12:01:02;;;;;;;27.40;24.48;;;19.30;99.90;;;;;;5246996;28;20021;-67
2023/05/20 12:03:33;;;;;;;27.38;25.10;;;19.10;99.90;;;;;;5247064;28;20031;-69
2023/05/20 12:06:04;;;;;;;26.13;23.40;;;19.40;99.90;;;;;;5246971;28;20566;-69
2023/05/20 12:08:35;;;;;;;26.73;24.25;;;19.50;99.90;;;;;;5246764;28;20024;-68
2023/05/20 12:11:05;;;;;;;26.13;23.58;;;18.90;99.90;;;;;;5246931;28;20024;-68
2023/05/20 12:13:37;;;;;;;29.02;26.20;;;19.10;99.90;;;;;;5246664;28;20086;-68
2023/05/20 12:16:07;;;;;;;26.77;24.20;;;19.30;99.90;;;;;;5246848;28;20078;-68
2023/05/20 12:18:38;;;;;;;26.92;21.83;;;19.30;99.90;;;;;;5246623;28;20037;-68
2023/05/20 12:21:09;;;;;;;30.65;27.73;;;19.10;99.90;;;;;;5246762;28;20399;-68
2023/05/20 12:23:40;;;;;;;29.52;26.85;;;19.10;99.90;;;;;;5246805;28;20551;-68
2023/05/20 12:26:11;;;;;;;28.02;25.33;;;19.10;99.90;;;;;;5246624;28;20453;-68
2023/05/20 12:28:42;;;;;;;27.13;24.38;;;19.30;99.90;;;;;;5246639;28;20028;-68
2023/05/20 12:31:12;;;;;;;28.75;25.90;;;19.50;99.90;;;;;;5246618;28;20029;-66
2023/05/20 12:33:43;;;;;;;25.73;23.30;;;19.80;99.90;;;;;;5246514;28;20039;-68
2023/05/20 12:36:15;;;;;;;28.90;25.88;;;20.00;99.90;;;;;;5246416;28;20537;-69
2023/05/20 12:38:46;;;;;;;24.50;22.15;;;19.90;99.90;;;;;;5246434;28;20033;-68
2023/05/20 12:41:16;;;;;;;24.27;22.25;;;20.30;99.90;;;;;;5247022;28;20038;-68
2023/05/20 12:43:47;;;;;;;26.45;24.08;;;19.60;99.90;;;;;;5250408;28;20086;-68
2023/05/20 12:46:18;;;;;;;25.67;23.50;;;19.90;99.90;;;;;;5250486;28;20095;-68
2023/05/20 12:48:49;;;;;;;29.00;26.63;;;20.00;99.90;;;;;;5248698;28;20063;-68
2023/05/20 12:51:19;;;;;;;28.50;26.27;;;20.10;99.90;;;;;;5250613;28;20047;-68